createdAt,value
2022-10-29T00:02:22.296Z,0.20
2022-10-29T00:04:49.457Z,0.28
2022-10-29T00:07:16.576Z,0.52
2022-10-29T00:09:43.573Z,0.20
2022-10-29T00:12:10.514Z,0.20
2022-10-29T00:14:37.625Z,0.15
2022-10-29T00:17:04.718Z,0.40
2022-10-29T00:19:36.488Z,0.60
2022-10-29T00:22:03.497Z,0.30
2022-10-29T00:24:30.672Z,0.10
2022-10-29T00:26:57.706Z,0.30
2022-10-29T00:29:30.702Z,0.10
2022-10-29T00:31:58.208Z,0.15
2022-10-29T00:34:25.169Z,0.10
2022-10-29T00:36:52.256Z,0.50
2022-10-29T00:39:19.364Z,0.43
2022-10-29T00:41:46.385Z,0.30
2022-10-29T00:44:20.433Z,0.45
2022-10-29T00:46:50.346Z,0.10
2022-10-29T00:49:17.510Z,0.40
2022-10-29T00:51:44.655Z,0.10
2022-10-29T00:54:12.361Z,0.43
2022-10-29T00:56:47.082Z,0.20
2022-10-29T00:59:15.592Z,0.20
2022-10-29T01:01:43.868Z,0.08
2022-10-29T01:04:11.406Z,0.10
2022-10-29T01:06:38.444Z,0.20
2022-10-29T01:09:08.053Z,0.75
2022-10-29T01:11:49.978Z,0.20
2022-10-29T01:14:20.316Z,0.38
2022-10-29T01:16:52.980Z,0.50
2022-10-29T01:19:35.384Z,0.22
2022-10-29T01:22:05.310Z,0.43
2022-10-29T01:24:55.775Z,0.10
2022-10-29T01:27:54.241Z,0.57
2022-10-29T01:30:40.007Z,0.40
2022-10-29T01:33:12.833Z,0.45
2022-10-29T01:36:01.581Z,0.10
2022-10-29T01:38:36.449Z,0.38
2022-10-29T01:41:12.793Z,0.20
2022-10-29T01:46:12.745Z,0.38
2022-10-29T01:48:42.854Z,0.10
2022-10-29T01:51:16.307Z,0.10
2022-10-29T01:53:43.413Z,0.20
2022-10-29T01:56:10.290Z,0.20
2022-10-29T01:58:37.959Z,0.00
2022-10-29T02:01:26.072Z,0.20
2022-10-29T02:04:17.679Z,0.20
2022-10-29T02:07:01.968Z,0.10
2022-10-29T02:09:51.593Z,0.10
2022-10-29T02:12:56.332Z,0.10
2022-10-29T02:15:33.775Z,0.20
2022-10-29T02:18:01.557Z,0.30
2022-10-29T02:20:28.637Z,0.10
2022-10-29T02:22:55.912Z,0.10
2022-10-29T02:25:22.987Z,0.10
2022-10-29T02:27:50.007Z,0.17
2022-10-29T02:30:17.040Z,0.35
2022-10-29T02:32:44.047Z,0.10
2022-10-29T02:35:10.992Z,0.10
2022-10-29T02:37:38.101Z,0.10
2022-10-29T02:40:05.436Z,0.28
2022-10-29T02:42:32.406Z,0.15
2022-10-29T02:44:59.390Z,0.40
2022-10-29T02:47:26.336Z,0.10
2022-10-29T02:49:53.249Z,0.30
2022-10-29T02:52:20.423Z,0.10
2022-10-29T02:54:47.359Z,0.10
2022-10-29T02:57:14.337Z,0.20
2022-10-29T02:59:41.300Z,0.40
2022-10-29T03:02:08.378Z,0.03
2022-10-29T03:04:35.486Z,0.35
2022-10-29T03:07:02.426Z,0.10
2022-10-29T03:09:29.585Z,0.10
2022-10-29T03:11:56.637Z,0.10
2022-10-29T03:14:23.578Z,0.10
2022-10-29T03:16:50.512Z,0.20
2022-10-29T03:19:17.416Z,0.13
2022-10-29T03:21:44.281Z,0.25
2022-10-29T03:24:11.176Z,0.30
2022-10-29T03:26:38.241Z,0.00
2022-10-29T03:29:05.162Z,0.00
2022-10-29T03:31:32.183Z,0.35
2022-10-29T03:33:59.264Z,0.10
2022-10-29T03:36:26.394Z,0.22
2022-10-29T03:38:53.438Z,0.10
2022-10-29T03:41:20.391Z,1.73
2022-10-29T03:43:47.878Z,0.10
2022-10-29T03:46:14.871Z,0.20
2022-10-29T03:48:42.099Z,0.10
2022-10-29T03:51:10.006Z,0.85
2022-10-29T03:53:37.543Z,0.10
2022-10-29T03:56:05.012Z,0.10
2022-10-29T03:58:31.970Z,0.20
2022-10-29T04:01:00.774Z,0.20
2022-10-29T04:03:28.782Z,0.10
2022-10-29T04:05:55.876Z,0.13
2022-10-29T04:08:22.852Z,0.10
2022-10-29T04:10:50.514Z,0.10
2022-10-29T04:13:17.714Z,0.20
2022-10-29T04:15:44.811Z,0.40
2022-10-29T04:18:11.915Z,0.10
2022-10-29T04:21:22.477Z,0.40
2022-10-29T04:29:00.402Z,0.10
2022-10-29T04:31:31.466Z,0.25
2022-10-29T04:33:59.568Z,0.10
2022-10-29T04:36:26.445Z,0.00
2022-10-29T04:38:53.676Z,0.10
2022-10-29T04:41:24.719Z,0.00
2022-10-29T04:43:53.595Z,0.20
2022-10-29T04:46:20.792Z,0.15
2022-10-29T04:48:48.024Z,0.20
2022-10-29T04:51:22.001Z,0.10
2022-10-29T04:53:51.985Z,0.20
2022-10-29T04:56:19.029Z,0.10
2022-10-29T04:58:46.052Z,0.10
2022-10-29T05:01:13.269Z,0.10
2022-10-29T05:03:40.228Z,0.22
2022-10-29T05:06:07.566Z,0.10
2022-10-29T05:08:34.555Z,0.10
2022-10-29T05:11:03.347Z,0.00
2022-10-29T05:13:30.449Z,0.40
2022-10-29T05:15:57.509Z,0.20
2022-10-29T05:18:24.617Z,0.13
2022-10-29T05:20:55.190Z,0.00
2022-10-29T05:23:22.287Z,0.10
2022-10-29T05:25:51.302Z,0.10
2022-10-29T05:28:20.942Z,0.50
2022-10-29T05:30:49.340Z,0.43
2022-10-29T05:33:22.385Z,0.17
2022-10-29T05:35:49.579Z,0.22
2022-10-29T05:38:20.978Z,0.10
2022-10-29T05:40:48.132Z,0.10
2022-10-29T05:43:15.760Z,0.20
2022-10-29T05:45:42.887Z,0.10
2022-10-29T05:50:37.888Z,0.10
2022-10-29T05:53:06.314Z,0.20
2022-10-29T05:55:34.085Z,0.32
2022-10-29T05:58:03.253Z,0.20
2022-10-29T06:00:31.510Z,0.10
2022-10-29T06:02:58.883Z,0.10
2022-10-29T06:05:26.105Z,0.20
2022-10-29T06:07:57.062Z,0.10
2022-10-29T06:10:25.002Z,0.10
2022-10-29T06:12:51.939Z,0.45
2022-10-29T06:15:19.098Z,0.38
2022-10-29T06:17:46.180Z,0.28
2022-10-29T06:20:15.253Z,0.10
2022-10-29T06:22:42.347Z,0.10
2022-10-29T06:25:10.052Z,0.30
2022-10-29T06:27:37.198Z,0.10
2022-10-29T06:30:05.161Z,0.28
2022-10-29T06:32:32.136Z,0.10
2022-10-29T06:34:59.221Z,0.35
2022-10-29T06:37:26.206Z,0.35
2022-10-29T06:39:53.205Z,0.10
2022-10-29T06:42:20.135Z,0.20
2022-10-29T06:44:47.032Z,0.10
2022-10-29T06:47:16.189Z,0.30
2022-10-29T06:49:43.551Z,0.30
2022-10-29T06:52:10.637Z,0.17
2022-10-29T06:54:37.688Z,0.95
2022-10-29T06:57:04.789Z,0.17
2022-10-29T06:59:31.783Z,0.15
2022-10-29T07:01:59.156Z,0.17
2022-10-29T07:04:26.250Z,0.10
2022-10-29T07:06:53.366Z,0.03
2022-10-29T07:09:20.536Z,0.10
2022-10-29T07:11:47.948Z,0.80
2022-10-29T07:14:14.965Z,1.17
2022-10-29T07:16:42.122Z,2.60
2022-10-29T07:19:09.724Z,1.38
2022-10-29T07:21:36.808Z,0.30
2022-10-29T07:24:06.731Z,0.88
2022-10-29T07:26:34.058Z,1.40
2022-10-29T07:29:01.180Z,2.10
2022-10-29T07:31:29.718Z,0.50
2022-10-29T07:33:57.171Z,8.10
2022-10-29T07:36:24.127Z,1.45
2022-10-29T07:38:51.208Z,1.10
2022-10-29T07:41:18.396Z,0.90
2022-10-29T07:43:51.408Z,1.52
2022-10-29T07:46:18.462Z,0.80
2022-10-29T07:48:55.433Z,0.70
2022-10-29T07:51:22.484Z,1.42
2022-10-29T07:53:49.642Z,0.77
2022-10-29T07:56:16.659Z,0.75
2022-10-29T07:58:43.715Z,1.45
2022-10-29T08:01:10.784Z,2.83
2022-10-29T08:03:38.151Z,1.23
2022-10-29T08:06:34.893Z,1.15
2022-10-29T08:09:01.877Z,0.95
2022-10-29T08:11:30.726Z,0.50
2022-10-29T08:13:57.721Z,0.43
2022-10-29T08:16:24.770Z,1.35
2022-10-29T08:18:51.854Z,0.63
2022-10-29T08:21:19.199Z,0.57
2022-10-29T08:23:46.424Z,0.77
2022-10-29T08:26:13.595Z,0.40
2022-10-29T08:28:42.918Z,0.50
2022-10-29T08:31:09.907Z,0.75
2022-10-29T08:33:36.950Z,0.88
2022-10-29T08:36:04.121Z,1.65
2022-10-29T08:38:31.218Z,0.38
2022-10-29T08:41:26.841Z,0.30
2022-10-29T08:44:07.222Z,1.13
2022-10-29T08:46:50.794Z,0.35
2022-10-29T08:49:22.357Z,0.40
2022-10-29T08:51:58.614Z,0.65
2022-10-29T08:54:31.189Z,1.48
2022-10-29T08:56:59.638Z,1.48
2022-10-29T08:59:27.217Z,0.45
2022-10-29T09:01:59.091Z,0.35
2022-10-29T09:04:35.953Z,0.70
2022-10-29T09:07:28.643Z,0.50
2022-10-29T09:10:01.408Z,0.45
2022-10-29T09:12:53.366Z,0.20
2022-10-29T09:15:46.131Z,0.43
2022-10-29T09:18:50.747Z,1.13
2022-10-29T09:21:43.788Z,0.45
2022-10-29T09:24:16.224Z,0.88
2022-10-29T09:26:59.706Z,0.60
2022-10-29T09:29:51.527Z,0.20
2022-10-29T09:32:22.703Z,0.80
2022-10-29T09:34:51.605Z,0.47
2022-10-29T09:37:40.995Z,0.50
2022-10-29T09:40:16.098Z,0.77
2022-10-29T09:42:43.586Z,0.90
2022-10-29T09:45:15.008Z,0.60
2022-10-29T09:47:57.826Z,0.30
2022-10-29T09:50:48.240Z,0.45
2022-10-29T09:53:16.482Z,0.30
2022-10-29T09:55:45.299Z,0.45
2022-10-29T09:58:19.662Z,0.38
2022-10-29T10:00:46.662Z,0.32
2022-10-29T10:03:29.023Z,0.38
2022-10-29T10:06:01.643Z,0.40
2022-10-29T10:08:29.139Z,0.28
2022-10-29T10:10:57.821Z,0.60
2022-10-29T10:13:30.062Z,0.45
2022-10-29T10:15:58.733Z,0.68
2022-10-29T10:18:32.518Z,0.30
2022-10-29T10:21:00.483Z,0.50
2022-10-29T10:24:06.157Z,0.52
2022-10-29T10:26:40.067Z,0.25
2022-10-29T10:29:21.294Z,0.88
2022-10-29T10:31:49.465Z,0.52
2022-10-29T10:34:16.401Z,0.20
2022-10-29T10:36:46.169Z,0.35
2022-10-29T10:39:21.106Z,0.63
2022-10-29T10:41:49.309Z,0.47
2022-10-29T10:44:16.364Z,0.30
2022-10-29T10:46:43.924Z,0.50
2022-10-29T10:49:16.288Z,0.20
2022-10-29T10:51:53.152Z,0.45
2022-10-29T10:54:37.105Z,0.57
2022-10-29T10:57:21.036Z,0.17
2022-10-29T11:00:06.601Z,0.65
2022-10-29T11:02:45.723Z,0.75
2022-10-29T11:05:23.787Z,0.80
2022-10-29T11:08:25.639Z,0.30
2022-10-29T11:10:54.780Z,0.85
2022-10-29T11:13:32.102Z,0.60
2022-10-29T11:16:07.931Z,0.50
2022-10-29T11:21:23.354Z,0.20
2022-10-29T11:24:11.532Z,0.40
2022-10-29T11:26:46.815Z,0.70
2022-10-29T11:29:32.253Z,0.45
2022-10-29T11:32:15.426Z,0.60
2022-10-29T11:35:04.336Z,0.32
2022-10-29T11:37:38.412Z,0.52
2022-10-29T11:40:14.200Z,1.05
2022-10-29T11:45:33.946Z,0.40
2022-10-29T11:48:11.975Z,1.42
2022-10-29T11:50:51.569Z,0.20
2022-10-29T11:53:49.798Z,0.35
2022-10-29T11:56:27.086Z,0.65
2022-10-29T11:59:04.815Z,0.75
2022-10-29T12:02:02.784Z,0.57
2022-10-29T12:04:40.697Z,0.40
2022-10-29T12:07:19.522Z,0.40
2022-10-29T12:09:57.711Z,0.90
2022-10-29T12:12:49.363Z,0.57
2022-10-29T12:15:19.244Z,0.30
2022-10-29T12:17:52.341Z,0.28
2022-10-29T12:20:45.901Z,0.60
2022-10-29T12:23:28.386Z,0.68
2022-10-29T12:26:10.550Z,0.30
2022-10-29T12:29:19.599Z,0.45
2022-10-29T12:32:03.477Z,0.50
2022-10-29T12:34:37.618Z,0.50
2022-10-29T12:37:10.125Z,0.45
2022-10-29T12:40:00.743Z,0.55
2022-10-29T12:42:30.194Z,0.63
2022-10-29T12:46:18.558Z,0.80
2022-10-29T12:48:46.475Z,0.20
2022-10-29T12:51:13.531Z,0.60
2022-10-29T12:53:43.548Z,0.35
2022-10-29T12:56:11.401Z,0.38
2022-10-29T12:58:45.501Z,0.68
2022-10-29T13:01:57.326Z,0.40
2022-10-29T13:04:30.966Z,0.63
2022-10-29T13:09:48.503Z,0.30
2022-10-29T13:12:44.070Z,0.55
2022-10-29T13:15:16.066Z,0.52
2022-10-29T13:17:43.099Z,0.70
2022-10-29T13:20:28.106Z,0.35
2022-10-29T13:22:56.736Z,0.50
2022-10-29T13:25:29.909Z,0.38
2022-10-29T13:27:57.080Z,0.50
2022-10-29T13:30:30.318Z,1.38
2022-10-29T13:32:57.655Z,0.57
2022-10-29T13:35:27.825Z,0.50
2022-10-29T13:38:12.784Z,0.65
2022-10-29T13:40:41.443Z,0.35
2022-10-29T13:43:12.617Z,0.60
2022-10-29T13:45:41.046Z,0.75
2022-10-29T13:48:13.389Z,0.98
2022-10-29T13:50:40.357Z,0.82
2022-10-29T13:53:13.163Z,0.50
2022-10-29T13:55:40.615Z,0.68
2022-10-29T13:58:13.737Z,0.40
2022-10-29T14:00:41.404Z,0.65
2022-10-29T14:03:13.855Z,0.45
2022-10-29T14:05:47.070Z,0.85
2022-10-29T14:08:15.670Z,0.40
2022-10-29T14:10:44.144Z,0.85
2022-10-29T14:13:13.858Z,1.52
2022-10-29T14:16:06.240Z,1.20
2022-10-29T14:18:36.036Z,0.68
2022-10-29T14:21:28.950Z,0.65
2022-10-29T14:24:09.392Z,0.93
2022-10-29T14:26:38.324Z,0.90
2022-10-29T14:29:24.824Z,0.80
2022-10-29T14:32:07.632Z,0.70
2022-10-29T14:34:34.690Z,0.80
2022-10-29T14:37:14.324Z,0.68
2022-10-29T14:39:58.322Z,0.68
2022-10-29T14:42:29.132Z,0.80
2022-10-29T14:44:56.681Z,0.88
2022-10-29T14:47:37.711Z,0.40
2022-10-29T14:50:06.463Z,0.57
2022-10-29T14:52:44.065Z,0.70
2022-10-29T14:55:17.629Z,0.88
2022-10-29T14:57:53.157Z,0.65
2022-10-29T15:00:27.789Z,0.60
2022-10-29T15:02:55.505Z,1.27
2022-10-29T15:05:32.857Z,0.80
2022-10-29T15:08:14.171Z,1.13
2022-10-29T15:10:59.434Z,0.55
2022-10-29T15:13:29.739Z,1.65
2022-10-29T15:16:08.357Z,0.60
2022-10-29T15:18:35.412Z,0.50
2022-10-29T15:21:02.509Z,0.77
2022-10-29T15:23:34.230Z,1.00
2022-10-29T15:26:24.658Z,1.25
2022-10-29T15:28:54.622Z,0.65
2022-10-29T15:31:43.513Z,0.95
2022-10-29T15:34:14.754Z,1.02
2022-10-29T15:36:49.409Z,0.65
2022-10-29T15:39:29.423Z,1.00
2022-10-29T15:42:00.149Z,0.80
2022-10-29T15:44:33.827Z,0.98
2022-10-29T15:47:05.434Z,1.13
2022-10-29T15:49:33.999Z,1.38
2022-10-29T15:52:02.872Z,1.65
2022-10-29T15:54:32.276Z,1.63
2022-10-29T15:57:04.029Z,1.63
2022-10-29T15:59:32.331Z,4.95
2022-10-29T16:01:59.556Z,5.45
2022-10-29T16:04:26.661Z,4.70
2022-10-29T16:06:53.606Z,1.92
2022-10-29T16:09:20.933Z,2.00
2022-10-29T16:11:50.058Z,1.50
2022-10-29T16:14:17.158Z,1.55
2022-10-29T16:16:44.637Z,1.95
2022-10-29T16:19:11.738Z,1.35
2022-10-29T16:21:38.969Z,1.23
2022-10-29T16:24:06.844Z,1.30
2022-10-29T16:26:36.099Z,1.05
2022-10-29T16:29:03.059Z,0.60
2022-10-29T16:31:30.150Z,1.10
2022-10-29T16:33:58.263Z,1.42
2022-10-29T16:36:25.718Z,1.70
2022-10-29T16:38:52.987Z,1.45
2022-10-29T16:41:22.352Z,0.85
2022-10-29T16:43:52.983Z,1.63
2022-10-29T16:46:20.196Z,1.02
2022-10-29T16:48:47.346Z,1.08
2022-10-29T16:51:14.521Z,1.15
2022-10-29T16:53:41.568Z,1.33
2022-10-29T16:56:08.909Z,1.98
2022-10-29T16:58:36.126Z,1.98
2022-10-29T17:01:07.611Z,1.67
2022-10-29T17:03:35.374Z,1.35
2022-10-29T17:06:04.560Z,1.40
2022-10-29T17:08:33.323Z,1.17
2022-10-29T17:11:05.982Z,1.48
2022-10-29T17:13:34.200Z,1.20
2022-10-29T17:16:01.148Z,1.50
2022-10-29T17:18:28.349Z,1.75
2022-10-29T17:20:59.532Z,2.08
2022-10-29T17:23:30.674Z,1.58
2022-10-29T17:25:58.161Z,1.75
2022-10-29T17:28:25.820Z,1.23
2022-10-29T17:30:53.139Z,2.58
2022-10-29T17:33:21.746Z,1.02
2022-10-29T17:35:49.222Z,1.80
2022-10-29T17:38:16.374Z,4.55
2022-10-29T17:40:44.547Z,5.53
2022-10-29T17:43:12.471Z,2.25
2022-10-29T17:45:39.895Z,2.42
2022-10-29T17:48:07.709Z,2.13
2022-10-29T17:50:34.784Z,1.80
2022-10-29T17:53:01.951Z,1.92
2022-10-29T17:55:29.334Z,1.63
2022-10-29T17:57:56.868Z,2.72
2022-10-29T18:00:24.383Z,1.55
2022-10-29T18:02:51.581Z,1.40
2022-10-29T18:05:18.777Z,2.10
2022-10-29T18:07:45.865Z,2.15
2022-10-29T18:10:13.073Z,2.28
2022-10-29T18:12:40.584Z,1.67
2022-10-29T18:15:08.313Z,1.30
2022-10-29T18:17:36.627Z,1.65
2022-10-29T18:20:04.520Z,1.88
2022-10-29T18:22:31.649Z,2.30
2022-10-29T18:24:59.038Z,1.38
2022-10-29T18:27:26.013Z,1.65
2022-10-29T18:29:53.702Z,3.42
2022-10-29T18:32:20.866Z,1.45
2022-10-29T18:34:50.587Z,3.40
2022-10-29T18:37:21.500Z,2.33
2022-10-29T18:39:49.705Z,1.75
2022-10-29T18:42:16.742Z,1.63
2022-10-29T18:44:43.710Z,2.80
2022-10-29T18:47:10.698Z,1.65
2022-10-29T18:49:37.790Z,1.65
2022-10-29T18:52:04.964Z,2.10
2022-10-29T18:54:32.035Z,1.42
2022-10-29T18:56:59.185Z,3.50
2022-10-29T18:59:26.286Z,2.80
2022-10-29T19:01:53.387Z,3.65
2022-10-29T19:04:20.756Z,2.20
2022-10-29T19:06:47.634Z,2.20
2022-10-29T19:09:14.760Z,2.45
2022-10-29T19:11:41.749Z,2.70
2022-10-29T19:14:11.950Z,2.63
2022-10-29T19:16:38.848Z,3.08
2022-10-29T19:19:07.819Z,2.90
2022-10-29T19:21:35.594Z,3.65
2022-10-29T19:24:02.573Z,2.85
2022-10-29T19:26:30.864Z,2.38
2022-10-29T19:28:59.704Z,2.20
2022-10-29T19:31:27.512Z,2.35
2022-10-29T19:33:57.227Z,2.47
2022-10-29T19:36:24.395Z,2.17
2022-10-29T19:38:51.818Z,2.53
2022-10-29T19:41:18.780Z,1.50
2022-10-29T19:43:45.744Z,2.00
2022-10-29T19:46:14.926Z,2.30
2022-10-29T19:48:41.975Z,2.38
2022-10-29T19:51:09.707Z,2.67
2022-10-29T19:53:38.048Z,1.92
2022-10-29T19:56:06.533Z,2.03
2022-10-29T19:58:33.709Z,2.35
2022-10-29T20:01:05.529Z,1.65
2022-10-29T20:03:32.536Z,1.88
2022-10-29T20:05:59.573Z,1.42
2022-10-29T20:08:27.346Z,1.77
2022-10-29T20:10:57.783Z,2.40
2022-10-29T20:13:24.890Z,1.45
2022-10-29T20:15:52.174Z,1.90
2022-10-29T20:18:19.567Z,2.05
2022-10-29T20:20:47.102Z,1.10
2022-10-29T20:23:14.168Z,1.90
2022-10-29T20:25:41.674Z,1.60
2022-10-29T20:28:08.671Z,1.27
2022-10-29T20:30:35.648Z,1.38
2022-10-29T20:33:02.808Z,1.65
2022-10-29T20:35:33.946Z,1.77
2022-10-29T20:38:01.417Z,2.22
2022-10-29T20:40:28.748Z,2.00
2022-10-29T20:42:55.929Z,1.60
2022-10-29T20:45:23.262Z,1.48
2022-10-29T20:47:50.732Z,1.48
2022-10-29T20:50:18.303Z,1.38
2022-10-29T20:52:54.503Z,1.35
2022-10-29T20:55:22.131Z,1.55
2022-10-29T20:57:49.139Z,1.33
2022-10-29T21:00:16.213Z,1.02
2022-10-29T21:02:43.360Z,2.08
2022-10-29T21:05:10.501Z,1.65
2022-10-29T21:07:39.101Z,1.50
2022-10-29T21:10:07.838Z,1.23
2022-10-29T21:12:34.717Z,1.42
2022-10-29T21:15:01.682Z,2.47
2022-10-29T21:17:28.566Z,2.13
2022-10-29T21:19:55.469Z,2.22
2022-10-29T21:22:22.512Z,1.58
2022-10-29T21:24:49.532Z,1.25
2022-10-29T21:27:16.438Z,1.30
2022-10-29T21:29:43.356Z,1.52
2022-10-29T21:32:13.019Z,1.85
2022-10-29T21:34:43.699Z,1.27
2022-10-29T21:37:10.725Z,2.03
2022-10-29T21:39:38.661Z,1.92
2022-10-29T21:42:05.630Z,2.10
2022-10-29T21:44:32.646Z,1.98
2022-10-29T21:46:59.555Z,1.52
2022-10-29T21:49:31.277Z,1.85
2022-10-29T21:51:58.320Z,1.40
2022-10-29T21:54:28.258Z,1.40
2022-10-29T21:56:55.535Z,1.40
2022-10-29T21:59:22.571Z,0.85
2022-10-29T22:01:49.588Z,1.10
2022-10-29T22:04:16.563Z,1.20
2022-10-29T22:06:43.473Z,1.02
2022-10-29T22:09:11.854Z,1.05
2022-10-29T22:11:38.845Z,0.68
2022-10-29T22:14:05.886Z,0.70
2022-10-29T22:16:32.829Z,0.95
2022-10-29T22:18:59.858Z,1.00
2022-10-29T22:21:27.112Z,1.00
2022-10-29T22:23:55.541Z,0.80
2022-10-29T22:26:24.286Z,1.00
2022-10-29T22:28:51.255Z,0.68
2022-10-29T22:31:19.460Z,0.65
2022-10-29T22:33:46.558Z,1.38
2022-10-29T22:36:18.108Z,1.25
2022-10-29T22:38:46.376Z,0.35
2022-10-29T22:41:14.884Z,0.52
2022-10-29T22:43:42.172Z,0.50
2022-10-29T22:46:09.546Z,0.85
2022-10-29T22:48:36.582Z,0.50
2022-10-29T22:51:17.348Z,0.60
2022-10-29T22:53:45.017Z,0.40
2022-10-29T22:56:31.809Z,0.15
2022-10-29T22:58:58.934Z,0.60
2022-10-29T23:01:30.700Z,0.40
2022-10-29T23:03:58.482Z,0.50
2022-10-29T23:06:25.620Z,1.30
2022-10-29T23:08:53.880Z,0.47
2022-10-29T23:11:26.013Z,0.45
2022-10-29T23:13:58.522Z,0.93
2022-10-29T23:16:26.713Z,0.40
2022-10-29T23:18:55.767Z,0.47
2022-10-29T23:21:22.685Z,0.65
2022-10-29T23:23:49.837Z,0.47
2022-10-29T23:26:18.813Z,0.65
2022-10-29T23:28:45.855Z,0.75
2022-10-29T23:31:18.057Z,0.57
2022-10-29T23:33:46.155Z,0.28
2022-10-29T23:36:13.693Z,0.60
2022-10-29T23:38:40.837Z,0.20
2022-10-29T23:41:08.019Z,0.20
2022-10-29T23:43:34.961Z,0.20
2022-10-29T23:46:02.028Z,0.17
2022-10-29T23:48:29.004Z,0.10
2022-10-29T23:50:56.616Z,0.70
2022-10-29T23:53:24.221Z,0.32
2022-10-29T23:55:51.223Z,0.30
2022-10-29T23:58:18.235Z,0.40
